sensor_id;sensor_type;location;lat;lon;timestamp;temperature;humidity
42147;DHT22;27815;43.410;11.852;2023-12-20T00:00:48;5.40;72.10
42147;DHT22;27815;43.410;11.852;2023-12-20T00:04:51;5.30;72.10
42147;DHT22;27815;43.410;11.852;2023-12-20T00:08:54;5.30;72.10
42147;DHT22;27815;43.410;11.852;2023-12-20T00:12:57;5.30;72.30
42147;DHT22;27815;43.410;11.852;2023-12-20T00:17:00;5.20;72.60
42147;DHT22;27815;43.410;11.852;2023-12-20T00:21:03;5.20;72.70
42147;DHT22;27815;43.410;11.852;2023-12-20T00:25:07;5.30;72.70
42147;DHT22;27815;43.410;11.852;2023-12-20T00:29:11;5.20;72.50
42147;DHT22;27815;43.410;11.852;2023-12-20T00:33:13;5.10;72.40
42147;DHT22;27815;43.410;11.852;2023-12-20T00:37:16;5.00;72.40
42147;DHT22;27815;43.410;11.852;2023-12-20T00:41:19;5.00;72.40
42147;DHT22;27815;43.410;11.852;2023-12-20T00:45:22;5.00;72.40
42147;DHT22;27815;43.410;11.852;2023-12-20T00:49:25;4.90;72.30
42147;DHT22;27815;43.410;11.852;2023-12-20T00:53:28;4.70;72.40
42147;DHT22;27815;43.410;11.852;2023-12-20T00:57:31;4.80;72.50
42147;DHT22;27815;43.410;11.852;2023-12-20T01:01:34;4.60;72.50
42147;DHT22;27815;43.410;11.852;2023-12-20T01:05:37;4.50;72.60
42147;DHT22;27815;43.410;11.852;2023-12-20T01:09:40;4.30;72.70
42147;DHT22;27815;43.410;11.852;2023-12-20T01:13:43;4.30;72.80
42147;DHT22;27815;43.410;11.852;2023-12-20T01:17:45;4.30;72.60
42147;DHT22;27815;43.410;11.852;2023-12-20T01:21:49;4.30;72.60
42147;DHT22;27815;43.410;11.852;2023-12-20T01:25:52;4.20;72.50
42147;DHT22;27815;43.410;11.852;2023-12-20T01:29:54;4.20;72.60
42147;DHT22;27815;43.410;11.852;2023-12-20T01:33:57;4.20;72.50
42147;DHT22;27815;43.410;11.852;2023-12-20T01:38:00;4.20;72.50
42147;DHT22;27815;43.410;11.852;2023-12-20T01:42:04;4.10;72.60
42147;DHT22;27815;43.410;11.852;2023-12-20T01:46:07;4.10;72.60
42147;DHT22;27815;43.410;11.852;2023-12-20T01:50:10;4.10;72.50
42147;DHT22;27815;43.410;11.852;2023-12-20T01:54:13;4.10;72.50
42147;DHT22;27815;43.410;11.852;2023-12-20T01:58:16;4.10;72.60
42147;DHT22;27815;43.410;11.852;2023-12-20T02:02:20;4.00;72.60
42147;DHT22;27815;43.410;11.852;2023-12-20T02:06:23;4.00;72.80
42147;DHT22;27815;43.410;11.852;2023-12-20T02:10:27;3.90;73.00
42147;DHT22;27815;43.410;11.852;2023-12-20T02:14:30;3.90;73.10
42147;DHT22;27815;43.410;11.852;2023-12-20T02:18:33;3.80;73.10
42147;DHT22;27815;43.410;11.852;2023-12-20T02:22:36;3.80;73.10
42147;DHT22;27815;43.410;11.852;2023-12-20T02:26:40;3.70;73.20
42147;DHT22;27815;43.410;11.852;2023-12-20T02:30:47;3.70;73.30
42147;DHT22;27815;43.410;11.852;2023-12-20T02:34:52;3.70;73.40
42147;DHT22;27815;43.410;11.852;2023-12-20T02:38:55;3.80;73.50
42147;DHT22;27815;43.410;11.852;2023-12-20T02:42:58;3.80;73.40
42147;DHT22;27815;43.410;11.852;2023-12-20T02:47:00;3.80;73.30
42147;DHT22;27815;43.410;11.852;2023-12-20T02:51:03;3.80;73.50
42147;DHT22;27815;43.410;11.852;2023-12-20T02:55:07;3.80;73.70
42147;DHT22;27815;43.410;11.852;2023-12-20T02:59:10;3.80;73.90
42147;DHT22;27815;43.410;11.852;2023-12-20T03:03:13;3.80;73.70
42147;DHT22;27815;43.410;11.852;2023-12-20T03:07:16;3.70;73.60
42147;DHT22;27815;43.410;11.852;2023-12-20T03:11:18;3.60;73.60
42147;DHT22;27815;43.410;11.852;2023-12-20T03:15:21;3.60;73.80
42147;DHT22;27815;43.410;11.852;2023-12-20T03:19:24;3.60;73.80
42147;DHT22;27815;43.410;11.852;2023-12-20T03:23:27;3.50;73.70
42147;DHT22;27815;43.410;11.852;2023-12-20T03:27:30;3.30;73.90
42147;DHT22;27815;43.410;11.852;2023-12-20T03:31:33;3.30;73.80
42147;DHT22;27815;43.410;11.852;2023-12-20T03:35:36;3.20;73.80
42147;DHT22;27815;43.410;11.852;2023-12-20T03:39:39;3.10;73.70
42147;DHT22;27815;43.410;11.852;2023-12-20T03:43:42;3.00;73.70
42147;DHT22;27815;43.410;11.852;2023-12-20T03:47:45;3.00;73.70
42147;DHT22;27815;43.410;11.852;2023-12-20T03:51:48;3.00;73.80
42147;DHT22;27815;43.410;11.852;2023-12-20T03:55:51;3.00;73.70
42147;DHT22;27815;43.410;11.852;2023-12-20T03:59:55;3.00;73.90
42147;DHT22;27815;43.410;11.852;2023-12-20T04:03:57;3.00;74.00
42147;DHT22;27815;43.410;11.852;2023-12-20T04:08:01;3.00;74.00
42147;DHT22;27815;43.410;11.852;2023-12-20T04:12:05;3.00;74.00
42147;DHT22;27815;43.410;11.852;2023-12-20T04:16:08;3.00;74.00
42147;DHT22;27815;43.410;11.852;2023-12-20T04:20:11;3.00;74.00
42147;DHT22;27815;43.410;11.852;2023-12-20T04:24:14;3.00;73.90
42147;DHT22;27815;43.410;11.852;2023-12-20T04:28:17;2.90;74.00
42147;DHT22;27815;43.410;11.852;2023-12-20T04:32:20;2.80;74.10
42147;DHT22;27815;43.410;11.852;2023-12-20T04:36:23;2.80;74.10
42147;DHT22;27815;43.410;11.852;2023-12-20T04:40:27;2.80;74.10
42147;DHT22;27815;43.410;11.852;2023-12-20T04:44:31;2.80;74.10
42147;DHT22;27815;43.410;11.852;2023-12-20T04:48:33;2.80;74.10
42147;DHT22;27815;43.410;11.852;2023-12-20T04:52:36;2.80;74.20
42147;DHT22;27815;43.410;11.852;2023-12-20T04:56:39;2.80;74.20
42147;DHT22;27815;43.410;11.852;2023-12-20T05:00:42;2.80;74.20
42147;DHT22;27815;43.410;11.852;2023-12-20T05:04:45;2.80;74.40
42147;DHT22;27815;43.410;11.852;2023-12-20T05:08:48;2.80;74.30
42147;DHT22;27815;43.410;11.852;2023-12-20T05:12:51;2.80;74.40
42147;DHT22;27815;43.410;11.852;2023-12-20T05:16:54;2.80;74.30
42147;DHT22;27815;43.410;11.852;2023-12-20T05:20:57;2.80;74.30
42147;DHT22;27815;43.410;11.852;2023-12-20T05:25:01;2.90;74.30
42147;DHT22;27815;43.410;11.852;2023-12-20T05:29:04;2.90;74.20
42147;DHT22;27815;43.410;11.852;2023-12-20T05:33:07;2.80;74.20
42147;DHT22;27815;43.410;11.852;2023-12-20T05:37:09;2.80;74.20
42147;DHT22;27815;43.410;11.852;2023-12-20T05:41:12;2.70;74.30
42147;DHT22;27815;43.410;11.852;2023-12-20T05:45:16;2.60;74.30
42147;DHT22;27815;43.410;11.852;2023-12-20T05:49:19;2.60;74.30
42147;DHT22;27815;43.410;11.852;2023-12-20T05:53:21;2.60;74.20
42147;DHT22;27815;43.410;11.852;2023-12-20T05:57:24;2.50;74.20
42147;DHT22;27815;43.410;11.852;2023-12-20T06:01:27;2.50;74.40
42147;DHT22;27815;43.410;11.852;2023-12-20T06:05:30;2.60;74.40
42147;DHT22;27815;43.410;11.852;2023-12-20T06:09:33;2.60;74.30
42147;DHT22;27815;43.410;11.852;2023-12-20T06:13:36;2.60;74.20
42147;DHT22;27815;43.410;11.852;2023-12-20T06:17:39;2.60;74.20
42147;DHT22;27815;43.410;11.852;2023-12-20T06:21:42;2.50;74.20
42147;DHT22;27815;43.410;11.852;2023-12-20T06:25:47;2.40;74.20
42147;DHT22;27815;43.410;11.852;2023-12-20T06:29:49;2.30;74.30
42147;DHT22;27815;43.410;11.852;2023-12-20T06:33:52;2.10;74.30
42147;DHT22;27815;43.410;11.852;2023-12-20T06:38:00;2.10;74.30
42147;DHT22;27815;43.410;11.852;2023-12-20T06:42:04;2.10;74.30
42147;DHT22;27815;43.410;11.852;2023-12-20T06:46:06;2.00;74.20
42147;DHT22;27815;43.410;11.852;2023-12-20T06:50:09;2.00;74.30
42147;DHT22;27815;43.410;11.852;2023-12-20T06:54:12;1.90;74.40
42147;DHT22;27815;43.410;11.852;2023-12-20T06:58:15;1.90;74.50
42147;DHT22;27815;43.410;11.852;2023-12-20T07:02:19;1.90;74.40
42147;DHT22;27815;43.410;11.852;2023-12-20T07:06:23;1.90;74.40
42147;DHT22;27815;43.410;11.852;2023-12-20T07:10:28;1.90;74.80
42147;DHT22;27815;43.410;11.852;2023-12-20T07:14:30;2.00;75.00
42147;DHT22;27815;43.410;11.852;2023-12-20T07:18:33;1.90;74.80
42147;DHT22;27815;43.410;11.852;2023-12-20T07:22:36;1.80;74.80
42147;DHT22;27815;43.410;11.852;2023-12-20T07:26:39;1.90;74.70
42147;DHT22;27815;43.410;11.852;2023-12-20T07:30:42;1.80;74.60
42147;DHT22;27815;43.410;11.852;2023-12-20T07:34:45;1.80;74.70
42147;DHT22;27815;43.410;11.852;2023-12-20T07:38:48;1.90;75.00
42147;DHT22;27815;43.410;11.852;2023-12-20T07:42:51;2.10;75.10
42147;DHT22;27815;43.410;11.852;2023-12-20T07:46:54;2.10;74.90
42147;DHT22;27815;43.410;11.852;2023-12-20T07:50:57;2.10;74.90
42147;DHT22;27815;43.410;11.852;2023-12-20T07:54:59;1.90;74.60
42147;DHT22;27815;43.410;11.852;2023-12-20T07:59:02;1.60;74.60
42147;DHT22;27815;43.410;11.852;2023-12-20T08:03:06;1.60;74.80
42147;DHT22;27815;43.410;11.852;2023-12-20T08:07:09;1.70;74.80
42147;DHT22;27815;43.410;11.852;2023-12-20T08:11:12;1.70;74.50
42147;DHT22;27815;43.410;11.852;2023-12-20T08:15:15;1.60;74.60
42147;DHT22;27815;43.410;11.852;2023-12-20T08:19:18;1.60;74.90
42147;DHT22;27815;43.410;11.852;2023-12-20T08:23:21;1.80;75.00
42147;DHT22;27815;43.410;11.852;2023-12-20T08:27:28;1.90;74.60
42147;DHT22;27815;43.410;11.852;2023-12-20T08:31:30;1.80;74.70
42147;DHT22;27815;43.410;11.852;2023-12-20T08:35:33;2.10;74.90
42147;DHT22;27815;43.410;11.852;2023-12-20T08:39:36;2.30;74.70
42147;DHT22;27815;43.410;11.852;2023-12-20T08:43:39;2.60;74.30
42147;DHT22;27815;43.410;11.852;2023-12-20T08:47:42;2.70;74.50
42147;DHT22;27815;43.410;11.852;2023-12-20T08:51:48;3.10;74.50
42147;DHT22;27815;43.410;11.852;2023-12-20T08:55:51;3.30;74.20
42147;DHT22;27815;43.410;11.852;2023-12-20T08:59:53;3.30;74.20
42147;DHT22;27815;43.410;11.852;2023-12-20T09:03:56;3.30;74.20
42147;DHT22;27815;43.410;11.852;2023-12-20T09:07:59;3.30;74.20
42147;DHT22;27815;43.410;11.852;2023-12-20T09:12:02;3.60;74.50
42147;DHT22;27815;43.410;11.852;2023-12-20T09:16:05;3.80;74.10
42147;DHT22;27815;43.410;11.852;2023-12-20T09:20:09;4.10;74.10
42147;DHT22;27815;43.410;11.852;2023-12-20T09:24:12;4.50;73.80
42147;DHT22;27815;43.410;11.852;2023-12-20T09:28:15;4.60;73.80
42147;DHT22;27815;43.410;11.852;2023-12-20T09:32:18;4.70;73.80
42147;DHT22;27815;43.410;11.852;2023-12-20T09:36:20;4.70;73.80
42147;DHT22;27815;43.410;11.852;2023-12-20T09:40:26;4.80;73.80
42147;DHT22;27815;43.410;11.852;2023-12-20T09:44:29;5.00;73.80
42147;DHT22;27815;43.410;11.852;2023-12-20T09:48:33;5.20;73.80
42147;DHT22;27815;43.410;11.852;2023-12-20T09:52:38;5.50;73.90
42147;DHT22;27815;43.410;11.852;2023-12-20T09:56:41;5.90;73.70
42147;DHT22;27815;43.410;11.852;2023-12-20T10:00:47;6.50;73.30
42147;DHT22;27815;43.410;11.852;2023-12-20T10:04:51;7.00;73.00
42147;DHT22;27815;43.410;11.852;2023-12-20T10:08:54;7.50;72.70
42147;DHT22;27815;43.410;11.852;2023-12-20T10:13:10;7.90;72.20
42147;DHT22;27815;43.410;11.852;2023-12-20T10:17:13;8.00;71.90
42147;DHT22;27815;43.410;11.852;2023-12-20T10:21:17;8.10;72.00
42147;DHT22;27815;43.410;11.852;2023-12-20T10:25:21;8.50;71.90
42147;DHT22;27815;43.410;11.852;2023-12-20T10:29:24;8.70;71.40
42147;DHT22;27815;43.410;11.852;2023-12-20T10:33:29;9.00;71.10
42147;DHT22;27815;43.410;11.852;2023-12-20T10:37:39;9.10;71.00
42147;DHT22;27815;43.410;11.852;2023-12-20T10:41:43;9.10;70.90
42147;DHT22;27815;43.410;11.852;2023-12-20T10:45:46;9.30;70.80
42147;DHT22;27815;43.410;11.852;2023-12-20T10:49:50;9.50;70.50
42147;DHT22;27815;43.410;11.852;2023-12-20T10:53:55;9.50;70.10
42147;DHT22;27815;43.410;11.852;2023-12-20T10:58:04;9.50;70.10
42147;DHT22;27815;43.410;11.852;2023-12-20T11:02:09;9.50;70.00
42147;DHT22;27815;43.410;11.852;2023-12-20T11:14:55;9.40;70.10
42147;DHT22;27815;43.410;11.852;2023-12-20T11:19:06;9.30;70.00
42147;DHT22;27815;43.410;11.852;2023-12-20T11:23:10;9.30;70.20
42147;DHT22;27815;43.410;11.852;2023-12-20T11:27:13;9.30;70.40
42147;DHT22;27815;43.410;11.852;2023-12-20T11:31:16;9.60;70.30
42147;DHT22;27815;43.410;11.852;2023-12-20T11:35:20;10.00;69.80
42147;DHT22;27815;43.410;11.852;2023-12-20T11:39:25;10.20;69.20
42147;DHT22;27815;43.410;11.852;2023-12-20T11:43:36;10.30;69.30
42147;DHT22;27815;43.410;11.852;2023-12-20T11:47:39;10.40;69.10
42147;DHT22;27815;43.410;11.852;2023-12-20T11:51:42;10.50;68.90
42147;DHT22;27815;43.410;11.852;2023-12-20T11:55:48;10.40;68.90
42147;DHT22;27815;43.410;11.852;2023-12-20T11:59:51;10.40;69.00
42147;DHT22;27815;43.410;11.852;2023-12-20T12:04:07;10.50;69.00
42147;DHT22;27815;43.410;11.852;2023-12-20T12:08:10;10.70;68.70
42147;DHT22;27815;43.410;11.852;2023-12-20T12:12:13;10.90;68.40
42147;DHT22;27815;43.410;11.852;2023-12-20T12:16:20;11.00;68.20
42147;DHT22;27815;43.410;11.852;2023-12-20T12:20:23;10.80;67.90
42147;DHT22;27815;43.410;11.852;2023-12-20T12:24:26;10.80;68.30
42147;DHT22;27815;43.410;11.852;2023-12-20T12:28:29;10.90;67.90
42147;DHT22;27815;43.410;11.852;2023-12-20T12:32:34;10.70;68.00
42147;DHT22;27815;43.410;11.852;2023-12-20T12:36:38;10.80;68.00
42147;DHT22;27815;43.410;11.852;2023-12-20T12:40:43;11.00;67.80
42147;DHT22;27815;43.410;11.852;2023-12-20T12:44:47;11.10;67.50
42147;DHT22;27815;43.410;11.852;2023-12-20T12:48:50;11.30;67.30
42147;DHT22;27815;43.410;11.852;2023-12-20T12:52:53;11.20;67.30
42147;DHT22;27815;43.410;11.852;2023-12-20T12:56:56;11.10;67.30
42147;DHT22;27815;43.410;11.852;2023-12-20T13:01:00;11.10;67.10
42147;DHT22;27815;43.410;11.852;2023-12-20T13:05:04;11.00;66.90
42147;DHT22;27815;43.410;11.852;2023-12-20T13:09:08;10.90;66.90
42147;DHT22;27815;43.410;11.852;2023-12-20T13:13:12;11.00;66.90
42147;DHT22;27815;43.410;11.852;2023-12-20T13:17:15;10.90;66.50
42147;DHT22;27815;43.410;11.852;2023-12-20T13:21:19;10.90;66.50
42147;DHT22;27815;43.410;11.852;2023-12-20T13:25:21;11.00;66.50
42147;DHT22;27815;43.410;11.852;2023-12-20T13:29:24;10.80;66.70
42147;DHT22;27815;43.410;11.852;2023-12-20T13:33:29;10.70;66.70
42147;DHT22;27815;43.410;11.852;2023-12-20T13:37:32;10.80;66.60
42147;DHT22;27815;43.410;11.852;2023-12-20T13:41:35;10.90;66.50
42147;DHT22;27815;43.410;11.852;2023-12-20T13:45:38;10.90;66.30
42147;DHT22;27815;43.410;11.852;2023-12-20T13:49:41;11.00;66.30
42147;DHT22;27815;43.410;11.852;2023-12-20T13:53:44;10.90;66.20
42147;DHT22;27815;43.410;11.852;2023-12-20T13:57:47;10.80;66.50
42147;DHT22;27815;43.410;11.852;2023-12-20T14:01:57;10.60;66.60
42147;DHT22;27815;43.410;11.852;2023-12-20T14:06:00;10.70;66.60
42147;DHT22;27815;43.410;11.852;2023-12-20T14:10:04;10.70;66.60
42147;DHT22;27815;43.410;11.852;2023-12-20T14:14:08;10.70;66.60
42147;DHT22;27815;43.410;11.852;2023-12-20T14:18:11;10.80;66.60
42147;DHT22;27815;43.410;11.852;2023-12-20T14:22:15;10.70;66.60
42147;DHT22;27815;43.410;11.852;2023-12-20T14:26:19;10.60;66.60
42147;DHT22;27815;43.410;11.852;2023-12-20T14:30:22;10.50;66.80
42147;DHT22;27815;43.410;11.852;2023-12-20T14:34:25;10.40;67.00
42147;DHT22;27815;43.410;11.852;2023-12-20T14:38:29;10.40;67.10
42147;DHT22;27815;43.410;11.852;2023-12-20T14:42:31;10.40;67.10
42147;DHT22;27815;43.410;11.852;2023-12-20T14:46:35;10.30;67.20
42147;DHT22;27815;43.410;11.852;2023-12-20T14:50:41;10.20;67.30
42147;DHT22;27815;43.410;11.852;2023-12-20T14:54:46;10.00;67.50
42147;DHT22;27815;43.410;11.852;2023-12-20T14:58:52;10.00;67.70
42147;DHT22;27815;43.410;11.852;2023-12-20T15:02:56;9.90;67.80
42147;DHT22;27815;43.410;11.852;2023-12-20T15:06:59;9.90;67.70
42147;DHT22;27815;43.410;11.852;2023-12-20T15:11:04;9.90;67.80
42147;DHT22;27815;43.410;11.852;2023-12-20T15:15:07;9.90;67.90
42147;DHT22;27815;43.410;11.852;2023-12-20T15:19:12;9.80;67.90
42147;DHT22;27815;43.410;11.852;2023-12-20T15:23:16;9.70;68.10
42147;DHT22;27815;43.410;11.852;2023-12-20T15:27:19;9.60;68.20
42147;DHT22;27815;43.410;11.852;2023-12-20T15:31:27;9.50;68.40
42147;DHT22;27815;43.410;11.852;2023-12-20T15:35:30;9.40;68.60
42147;DHT22;27815;43.410;11.852;2023-12-20T15:39:33;9.30;68.90
42147;DHT22;27815;43.410;11.852;2023-12-20T15:43:36;9.30;69.00
42147;DHT22;27815;43.410;11.852;2023-12-20T15:47:39;9.20;69.10
42147;DHT22;27815;43.410;11.852;2023-12-20T15:51:42;9.10;69.20
42147;DHT22;27815;43.410;11.852;2023-12-20T15:55:45;9.10;69.30
42147;DHT22;27815;43.410;11.852;2023-12-20T15:59:48;9.00;69.50
42147;DHT22;27815;43.410;11.852;2023-12-20T16:03:53;9.00;69.60
42147;DHT22;27815;43.410;11.852;2023-12-20T16:08:01;9.00;69.70
42147;DHT22;27815;43.410;11.852;2023-12-20T16:12:04;8.90;69.90
42147;DHT22;27815;43.410;11.852;2023-12-20T16:16:10;8.80;70.20
42147;DHT22;27815;43.410;11.852;2023-12-20T16:20:13;8.80;70.20
42147;DHT22;27815;43.410;11.852;2023-12-20T16:24:16;8.70;70.10
42147;DHT22;27815;43.410;11.852;2023-12-20T16:28:19;8.80;70.00
42147;DHT22;27815;43.410;11.852;2023-12-20T16:32:22;8.70;70.00
42147;DHT22;27815;43.410;11.852;2023-12-20T16:36:49;8.60;69.90
42147;DHT22;27815;43.410;11.852;2023-12-20T16:40:54;8.60;70.00
42147;DHT22;27815;43.410;11.852;2023-12-20T16:44:57;8.60;69.90
42147;DHT22;27815;43.410;11.852;2023-12-20T16:49:00;8.60;69.80
42147;DHT22;27815;43.410;11.852;2023-12-20T16:53:03;8.50;69.80
42147;DHT22;27815;43.410;11.852;2023-12-20T16:57:09;8.50;69.90
42147;DHT22;27815;43.410;11.852;2023-12-20T17:01:19;8.50;69.90
42147;DHT22;27815;43.410;11.852;2023-12-20T17:05:24;8.50;69.80
42147;DHT22;27815;43.410;11.852;2023-12-20T17:09:27;8.40;69.90
42147;DHT22;27815;43.410;11.852;2023-12-20T17:13:33;8.40;70.00
42147;DHT22;27815;43.410;11.852;2023-12-20T17:17:38;8.30;70.00
42147;DHT22;27815;43.410;11.852;2023-12-20T17:21:41;8.40;70.00
42147;DHT22;27815;43.410;11.852;2023-12-20T17:25:50;8.40;70.10
42147;DHT22;27815;43.410;11.852;2023-12-20T17:29:53;8.40;70.00
42147;DHT22;27815;43.410;11.852;2023-12-20T17:33:56;8.30;70.10
42147;DHT22;27815;43.410;11.852;2023-12-20T17:37:59;8.30;70.10
42147;DHT22;27815;43.410;11.852;2023-12-20T17:42:02;8.30;70.10
42147;DHT22;27815;43.410;11.852;2023-12-20T17:46:05;8.20;70.30
42147;DHT22;27815;43.410;11.852;2023-12-20T17:50:08;8.20;70.30
42147;DHT22;27815;43.410;11.852;2023-12-20T17:54:13;8.20;70.30
42147;DHT22;27815;43.410;11.852;2023-12-20T17:58:15;8.20;70.40
42147;DHT22;27815;43.410;11.852;2023-12-20T18:02:22;8.20;70.50
42147;DHT22;27815;43.410;11.852;2023-12-20T18:06:25;8.20;70.60
42147;DHT22;27815;43.410;11.852;2023-12-20T18:10:28;8.10;70.80
42147;DHT22;27815;43.410;11.852;2023-12-20T18:14:35;8.10;70.70
42147;DHT22;27815;43.410;11.852;2023-12-20T18:18:38;8.30;70.70
42147;DHT22;27815;43.410;11.852;2023-12-20T18:22:42;8.20;70.60
42147;DHT22;27815;43.410;11.852;2023-12-20T18:26:46;8.00;70.80
42147;DHT22;27815;43.410;11.852;2023-12-20T18:30:53;8.00;70.90
42147;DHT22;27815;43.410;11.852;2023-12-20T18:34:56;8.00;70.90
42147;DHT22;27815;43.410;11.852;2023-12-20T18:38:59;8.00;70.90
42147;DHT22;27815;43.410;11.852;2023-12-20T18:43:04;7.90;71.00
42147;DHT22;27815;43.410;11.852;2023-12-20T18:47:07;7.80;70.80
42147;DHT22;27815;43.410;11.852;2023-12-20T18:51:11;7.80;70.80
42147;DHT22;27815;43.410;11.852;2023-12-20T18:55:15;7.70;70.90
42147;DHT22;27815;43.410;11.852;2023-12-20T18:59:18;7.70;70.40
42147;DHT22;27815;43.410;11.852;2023-12-20T19:03:22;7.70;70.60
42147;DHT22;27815;43.410;11.852;2023-12-20T19:07:27;7.60;71.00
42147;DHT22;27815;43.410;11.852;2023-12-20T19:11:30;7.60;71.20
42147;DHT22;27815;43.410;11.852;2023-12-20T19:15:34;7.60;71.30
42147;DHT22;27815;43.410;11.852;2023-12-20T19:19:37;7.60;71.20
42147;DHT22;27815;43.410;11.852;2023-12-20T19:23:40;7.70;71.20
42147;DHT22;27815;43.410;11.852;2023-12-20T19:27:48;7.60;71.20
42147;DHT22;27815;43.410;11.852;2023-12-20T19:31:51;7.60;71.30
42147;DHT22;27815;43.410;11.852;2023-12-20T19:35:57;7.60;71.30
42147;DHT22;27815;43.410;11.852;2023-12-20T19:40:00;7.60;71.20
42147;DHT22;27815;43.410;11.852;2023-12-20T19:44:03;7.50;71.40
42147;DHT22;27815;43.410;11.852;2023-12-20T19:48:06;7.60;71.50
42147;DHT22;27815;43.410;11.852;2023-12-20T19:52:12;7.60;71.40
42147;DHT22;27815;43.410;11.852;2023-12-20T19:56:15;7.70;71.50
42147;DHT22;27815;43.410;11.852;2023-12-20T20:00:19;7.70;71.50
42147;DHT22;27815;43.410;11.852;2023-12-20T20:04:22;7.70;71.40
42147;DHT22;27815;43.410;11.852;2023-12-20T20:08:26;7.60;71.50
42147;DHT22;27815;43.410;11.852;2023-12-20T20:12:29;7.60;71.50
42147;DHT22;27815;43.410;11.852;2023-12-20T20:16:32;7.60;71.50
42147;DHT22;27815;43.410;11.852;2023-12-20T20:20:35;7.50;71.60
42147;DHT22;27815;43.410;11.852;2023-12-20T20:24:38;7.50;71.60
42147;DHT22;27815;43.410;11.852;2023-12-20T20:28:41;7.50;71.70
42147;DHT22;27815;43.410;11.852;2023-12-20T20:32:44;7.50;71.70
42147;DHT22;27815;43.410;11.852;2023-12-20T20:36:52;7.50;71.80
42147;DHT22;27815;43.410;11.852;2023-12-20T20:40:55;7.40;71.80
42147;DHT22;27815;43.410;11.852;2023-12-20T20:44:57;7.30;71.80
42147;DHT22;27815;43.410;11.852;2023-12-20T20:49:00;7.30;71.90
42147;DHT22;27815;43.410;11.852;2023-12-20T20:53:04;7.20;71.90
42147;DHT22;27815;43.410;11.852;2023-12-20T20:57:07;7.20;72.00
42147;DHT22;27815;43.410;11.852;2023-12-20T21:01:10;7.00;72.00
42147;DHT22;27815;43.410;11.852;2023-12-20T21:05:13;7.00;72.10
42147;DHT22;27815;43.410;11.852;2023-12-20T21:09:15;7.00;72.30
42147;DHT22;27815;43.410;11.852;2023-12-20T21:13:18;6.80;72.30
42147;DHT22;27815;43.410;11.852;2023-12-20T21:17:23;6.80;72.90
42147;DHT22;27815;43.410;11.852;2023-12-20T21:21:35;6.70;73.00
42147;DHT22;27815;43.410;11.852;2023-12-20T21:25:38;6.70;73.00
42147;DHT22;27815;43.410;11.852;2023-12-20T21:29:41;6.70;73.00
42147;DHT22;27815;43.410;11.852;2023-12-20T21:33:43;6.60;73.10
42147;DHT22;27815;43.410;11.852;2023-12-20T21:37:47;6.60;73.30
42147;DHT22;27815;43.410;11.852;2023-12-20T21:41:51;6.60;73.60
42147;DHT22;27815;43.410;11.852;2023-12-20T21:45:54;6.60;73.60
42147;DHT22;27815;43.410;11.852;2023-12-20T21:49:58;6.70;73.40
42147;DHT22;27815;43.410;11.852;2023-12-20T21:54:01;6.70;73.30
42147;DHT22;27815;43.410;11.852;2023-12-20T21:58:06;6.60;73.20
42147;DHT22;27815;43.410;11.852;2023-12-20T22:02:11;6.50;73.20
42147;DHT22;27815;43.410;11.852;2023-12-20T22:06:14;6.40;73.50
42147;DHT22;27815;43.410;11.852;2023-12-20T22:10:17;6.40;73.70
42147;DHT22;27815;43.410;11.852;2023-12-20T22:14:20;6.40;73.60
42147;DHT22;27815;43.410;11.852;2023-12-20T22:18:23;6.30;73.60
42147;DHT22;27815;43.410;11.852;2023-12-20T22:22:27;6.30;73.60
42147;DHT22;27815;43.410;11.852;2023-12-20T22:26:30;6.30;73.50
42147;DHT22;27815;43.410;11.852;2023-12-20T22:30:33;6.20;73.60
42147;DHT22;27815;43.410;11.852;2023-12-20T22:34:36;6.10;73.90
42147;DHT22;27815;43.410;11.852;2023-12-20T22:38:39;6.00;74.00
42147;DHT22;27815;43.410;11.852;2023-12-20T22:42:42;6.00;74.00
42147;DHT22;27815;43.410;11.852;2023-12-20T22:46:45;6.00;73.90
42147;DHT22;27815;43.410;11.852;2023-12-20T22:50:48;5.90;74.00
42147;DHT22;27815;43.410;11.852;2023-12-20T22:54:50;5.80;74.00
42147;DHT22;27815;43.410;11.852;2023-12-20T22:58:53;5.80;74.00
42147;DHT22;27815;43.410;11.852;2023-12-20T23:02:56;5.80;73.90
42147;DHT22;27815;43.410;11.852;2023-12-20T23:06:59;5.70;74.00
42147;DHT22;27815;43.410;11.852;2023-12-20T23:11:02;5.60;74.00
42147;DHT22;27815;43.410;11.852;2023-12-20T23:15:05;5.60;74.00
42147;DHT22;27815;43.410;11.852;2023-12-20T23:19:08;5.50;74.00
42147;DHT22;27815;43.410;11.852;2023-12-20T23:23:13;5.40;74.00
42147;DHT22;27815;43.410;11.852;2023-12-20T23:27:16;5.30;74.10
42147;DHT22;27815;43.410;11.852;2023-12-20T23:31:23;5.30;74.20
42147;DHT22;27815;43.410;11.852;2023-12-20T23:35:26;5.30;74.30
42147;DHT22;27815;43.410;11.852;2023-12-20T23:39:29;5.20;74.30
42147;DHT22;27815;43.410;11.852;2023-12-20T23:43:32;5.10;74.30
42147;DHT22;27815;43.410;11.852;2023-12-20T23:47:35;5.00;74.20
42147;DHT22;27815;43.410;11.852;2023-12-20T23:51:38;5.00;74.50
42147;DHT22;27815;43.410;11.852;2023-12-20T23:55:41;5.00;74.50
42147;DHT22;27815;43.410;11.852;2023-12-20T23:59:44;4.90;74.50
